Time;durP1;ratioP1;P1;durP2;ratioP2;P2;SDS_P1;SDS_P2;PMS_P1;PMS_P2;Temp;Humidity;BMP_temperature;BMP_pressure;BME280_temperature;BME280_humidity;BME280_pressure;Samples;Min_cycle;Max_cycle;Signal;HPM_P1;HPM_P2
2022/09/22 00:00:30;;;;;;;1.77;0.50;;;;;;;22.61;30.44;101407.50;4749247;30;20044;-87
2022/09/22 00:02:57;;;;;;;0.95;0.50;;;;;;;22.58;30.26;101408.00;4743560;30;20095;-87
2022/09/22 00:05:23;;;;;;;1.10;0.40;;;;;;;22.56;30.27;101415.56;4724473;30;20033;-87
2022/09/22 00:07:51;;;;;;;0.40;0.40;;;;;;;22.52;30.29;101412.50;4738131;30;20036;-87
2022/09/22 00:10:20;;;;;;;0.60;0.50;;;;;;;22.57;30.22;101412.63;4722843;30;20040;-86
2022/09/22 00:12:49;;;;;;;0.82;0.47;;;;;;;22.57;30.23;101404.44;4730601;30;20033;-86
2022/09/22 00:15:16;;;;;;;1.70;0.50;;;;;;;22.51;30.22;101402.72;4728971;30;20055;-87
2022/09/22 00:17:42;;;;;;;0.55;0.40;;;;;;;22.57;30.30;101415.34;4729098;30;20557;-86
2022/09/22 00:20:08;;;;;;;0.60;0.50;;;;;;;22.57;30.32;101409.06;4747814;30;20039;-86
2022/09/22 00:22:33;;;;;;;0.30;0.30;;;;;;;22.54;30.10;101409.56;4734829;30;20119;-86
2022/09/22 00:25:00;;;;;;;0.38;0.38;;;;;;;22.54;30.13;101404.09;4748486;30;20054;-86
2022/09/22 00:27:25;;;;;;;0.35;0.35;;;;;;;22.52;30.31;101408.97;4725567;30;20445;-86
2022/09/22 00:29:51;;;;;;;0.30;0.30;;;;;;;22.47;30.26;101398.78;4723258;30;20059;-86
2022/09/22 00:32:17;;;;;;;0.98;0.38;;;;;;;22.50;30.15;101401.03;4728117;30;20098;-86
2022/09/22 00:34:43;;;;;;;0.40;0.38;;;;;;;22.50;30.01;101407.31;4746965;30;20043;-86
2022/09/22 00:37:09;;;;;;;0.38;0.38;;;;;;;22.51;30.20;101408.16;4734040;30;20025;-86
2022/09/22 00:39:35;;;;;;;0.47;0.47;;;;;;;22.41;30.18;101399.78;4730841;30;20104;-86
2022/09/22 00:42:02;;;;;;;2.08;0.50;;;;;;;22.49;30.26;101415.72;4737433;30;20139;-86
2022/09/22 00:44:30;;;;;;;0.47;0.43;;;;;;;22.53;30.10;101413.38;4719322;30;20032;-86
2022/09/22 00:46:58;;;;;;;1.45;0.50;;;;;;;22.43;30.19;101400.34;4748495;30;20036;-86
2022/09/22 00:49:39;;;;;;;0.77;0.45;;;;;;;22.49;30.38;101413.84;4751573;30;20118;-86
2022/09/22 00:52:04;;;;;;;1.88;0.45;;;;;;;22.44;30.20;101400.13;4725886;30;20060;-86
2022/09/22 00:54:30;;;;;;;0.40;0.40;;;;;;;22.39;30.13;101388.31;4731748;30;20040;-86
2022/09/22 00:57:17;;;;;;;0.75;0.50;;;;;;;22.46;30.16;101402.59;4736737;30;20184;-86
2022/09/22 00:59:43;;;;;;;1.20;0.60;;;;;;;22.50;30.02;101403.75;4738387;30;20397;-86
2022/09/22 01:02:09;;;;;;;0.40;0.40;;;;;;;22.35;30.04;101385.22;4739090;30;20044;-86
2022/09/22 01:04:35;;;;;;;0.38;0.35;;;;;;;22.46;30.05;101408.06;4736656;30;20135;-86
2022/09/22 01:07:00;;;;;;;0.40;0.40;;;;;;;22.42;30.08;101388.66;4739938;30;20606;-86
2022/09/22 01:09:27;;;;;;;0.40;0.40;;;;;;;22.43;29.99;101392.19;4727073;30;20032;-86
2022/09/22 01:11:52;;;;;;;0.40;0.40;;;;;;;22.28;30.00;101373.63;4721595;30;20036;-86
2022/09/22 01:14:55;;;;;;;2.35;0.40;;;;;;;22.46;30.16;101394.44;4734223;30;20127;-86
2022/09/22 01:18:00;;;;;;;1.13;0.43;;;;;;;22.44;29.99;101393.84;4759782;30;20044;-86
2022/09/22 01:21:19;;;;;;;0.33;0.33;;;;;;;22.38;29.91;101384.72;4745526;30;20040;-86
2022/09/22 01:24:17;;;;;;;0.60;0.38;;;;;;;22.40;30.06;101395.38;4739550;30;20110;-86
2022/09/22 01:27:05;;;;;;;0.47;0.47;;;;;;;22.35;29.94;101390.66;4738700;30;20052;-86
2022/09/22 01:30:06;;;;;;;0.90;0.50;;;;;;;22.37;29.90;101390.41;4732383;30;20090;-86
2022/09/22 01:32:44;;;;;;;1.08;0.40;;;;;;;22.36;29.85;101391.50;4743411;30;20052;-86
2022/09/22 01:35:31;;;;;;;0.30;0.30;;;;;;;22.36;29.79;101388.78;4753293;30;20058;-86
2022/09/22 01:38:02;;;;;;;0.40;0.40;;;;;;;22.37;29.64;101382.25;4758939;30;20036;-86
2022/09/22 01:40:48;;;;;;;0.30;0.30;;;;;;;22.29;29.78;101373.41;4756237;30;20075;-86
2022/09/22 01:43:23;;;;;;;0.45;0.40;;;;;;;22.35;29.66;101389.84;4724161;30;20043;-86
2022/09/22 01:45:49;;;;;;;0.30;0.30;;;;;;;22.35;29.71;101389.84;4755817;30;20130;-86
2022/09/22 01:48:25;;;;;;;0.32;0.32;;;;;;;22.29;29.64;101378.84;4742495;30;20492;-86
2022/09/22 01:51:09;;;;;;;0.55;0.30;;;;;;;22.29;29.72;101381.56;4729610;30;20498;-86
2022/09/22 01:53:41;;;;;;;1.00;0.40;;;;;;;22.27;29.72;101377.41;4741834;30;20088;-86
2022/09/22 01:56:07;;;;;;;0.45;0.45;;;;;;;22.21;29.49;101373.75;4722408;30;20394;-86
2022/09/22 01:58:49;;;;;;;0.50;0.50;;;;;;;22.21;29.53;101368.28;4748980;30;20032;-86
2022/09/22 02:01:17;;;;;;;0.75;0.40;;;;;;;22.20;29.46;101369.38;4752756;30;20062;-86
2022/09/22 02:03:51;;;;;;;0.32;0.30;;;;;;;22.22;29.57;101369.16;4733581;30;20040;-86
2022/09/22 02:06:19;;;;;;;1.40;0.57;;;;;;;22.20;29.51;101371.28;4748976;30;20033;-86
2022/09/22 02:09:00;;;;;;;2.30;0.30;;;;;;;22.18;29.59;101368.81;4733235;30;20054;-86
2022/09/22 02:11:25;;;;;;;0.52;0.50;;;;;;;22.15;29.45;101369.28;4734355;30;20552;-86
2022/09/22 02:13:51;;;;;;;0.50;0.50;;;;;;;22.20;29.41;101365.84;4719635;30;20036;-86
2022/09/22 02:16:18;;;;;;;0.60;0.30;;;;;;;22.17;29.47;101363.59;4733732;30;20122;-86
2022/09/22 02:18:56;;;;;;;0.45;0.35;;;;;;;22.15;29.48;101366.56;4734440;30;20032;-86
2022/09/22 02:21:21;;;;;;;0.35;0.35;;;;;;;22.17;29.41;101361.69;4734225;30;20070;-86
2022/09/22 02:23:48;;;;;;;2.60;0.40;;;;;;;22.17;29.34;101372.59;4733958;30;20069;-86
2022/09/22 02:26:22;;;;;;;1.17;0.50;;;;;;;22.10;29.38;101361.00;4719754;30;20064;-86
2022/09/22 02:28:55;;;;;;;1.30;0.43;;;;;;;22.08;29.29;101360.44;4725609;30;20050;-86
2022/09/22 02:31:22;;;;;;;0.40;0.30;;;;;;;22.11;29.69;101368.09;4726224;30;20033;-86
2022/09/22 02:33:47;;;;;;;3.10;0.40;;;;;;;22.01;29.40;101343.38;4732772;30;20320;-86
2022/09/22 02:36:41;;;;;;;0.40;0.40;;;;;;;22.13;29.14;101365.97;4733599;30;20559;-86
2022/09/22 02:39:17;;;;;;;1.48;0.40;;;;;;;22.05;29.25;101359.00;4748754;30;20032;-86
2022/09/22 02:42:13;;;;;;;1.25;0.40;;;;;;;22.05;29.16;101358.19;4719328;30;20082;-86
2022/09/22 02:45:01;;;;;;;5.30;0.70;;;;;;;22.04;29.12;101357.38;4746939;30;20122;-86
2022/09/22 02:47:31;;;;;;;0.95;0.40;;;;;;;22.08;29.14;101357.72;4748304;30;20418;-86
2022/09/22 02:49:57;;;;;;;2.83;0.60;;;;;;;22.03;29.06;101354.88;4733249;30;20048;-86
2022/09/22 02:52:23;;;;;;;0.85;0.63;;;;;;;22.00;29.30;101349.91;4732864;30;20032;-86
2022/09/22 02:54:50;;;;;;;0.65;0.40;;;;;;;21.98;29.04;101341.16;4733392;30;20032;-86
2022/09/22 02:57:16;;;;;;;0.38;0.38;;;;;;;21.98;29.01;101350.16;4718244;30;20040;-86
2022/09/22 02:59:41;;;;;;;0.40;0.40;;;;;;;21.97;29.06;101356.66;4733291;30;20390;-86
2022/09/22 03:02:07;;;;;;;0.28;0.28;;;;;;;21.88;29.08;101339.03;4718258;30;20129;-86
2022/09/22 03:04:33;;;;;;;0.63;0.40;;;;;;;22.02;29.10;101364.91;4717979;30;20039;-86
2022/09/22 03:06:58;;;;;;;0.55;0.30;;;;;;;22.01;29.10;101357.00;4731734;30;20527;-86
2022/09/22 03:09:24;;;;;;;0.77;0.30;;;;;;;22.01;29.20;101351.53;4732264;30;20607;-86
2022/09/22 03:11:50;;;;;;;0.35;0.30;;;;;;;21.94;29.23;101348.97;4747580;30;20039;-86
2022/09/22 03:14:15;;;;;;;1.88;0.43;;;;;;;21.98;29.19;101360.22;4733253;30;20036;-86
2022/09/22 03:16:41;;;;;;;0.73;0.63;;;;;;;21.88;28.94;101348.03;4732373;30;20028;-86
2022/09/22 03:19:06;;;;;;;0.30;0.30;;;;;;;21.88;29.02;101348.03;4732902;30;20085;-86
2022/09/22 03:21:32;;;;;;;0.93;0.45;;;;;;;21.81;28.93;101328.28;4732039;30;20036;-86
2022/09/22 03:23:58;;;;;;;0.43;0.43;;;;;;;21.88;29.11;101333.59;4747220;30;20114;-86
2022/09/22 03:26:23;;;;;;;0.95;0.40;;;;;;;21.88;29.09;101341.78;4717171;30;20360;-86
2022/09/22 03:28:49;;;;;;;0.82;0.40;;;;;;;21.85;28.85;101337.66;4731915;30;20135;-86
2022/09/22 03:31:15;;;;;;;0.40;0.40;;;;;;;21.88;28.99;101345.31;4717856;30;20074;-86
2022/09/22 03:33:40;;;;;;;1.27;0.30;;;;;;;21.87;28.89;101343.66;4745957;30;20111;-86
2022/09/22 03:36:06;;;;;;;0.43;0.35;;;;;;;21.82;29.00;101340.84;4731071;30;20258;-85
2022/09/22 03:38:32;;;;;;;0.80;0.43;;;;;;;21.82;28.83;101338.13;4716573;30;20036;-86
2022/09/22 03:40:57;;;;;;;0.55;0.28;;;;;;;21.79;28.97;101337.78;4717435;30;20044;-86
2022/09/22 03:43:23;;;;;;;1.10;0.50;;;;;;;21.85;28.90;101348.53;4717684;30;20063;-86
2022/09/22 03:45:57;;;;;;;0.30;0.30;;;;;;;21.82;28.88;101338.13;4731546;30;20054;-86
2022/09/22 03:48:23;;;;;;;0.35;0.35;;;;;;;21.84;28.87;101341.41;4732658;30;20036;-86
2022/09/22 03:50:48;;;;;;;0.38;0.38;;;;;;;21.76;28.84;101320.84;4717253;30;20048;-86
2022/09/22 03:53:14;;;;;;;1.70;0.50;;;;;;;21.79;28.76;101338.59;4732277;30;20035;-86
2022/09/22 03:55:40;;;;;;;0.40;0.40;;;;;;;21.76;28.90;101323.56;4732569;30;20783;-86
2022/09/22 03:58:05;;;;;;;0.45;0.35;;;;;;;21.84;28.56;101343.31;4731640;30;20550;-86
2022/09/22 04:00:31;;;;;;;1.50;0.40;;;;;;;21.76;28.76;101329.00;4733327;30;20479;-86
2022/09/22 04:02:57;;;;;;;1.52;0.40;;;;;;;21.79;28.76;101335.88;4742063;30;20032;-86
2022/09/22 04:05:25;;;;;;;1.08;0.50;;;;;;;21.82;28.69;101337.28;4744580;30;20126;-86
2022/09/22 04:07:51;;;;;;;0.50;0.50;;;;;;;21.75;28.75;101334.72;4747911;30;20036;-86
2022/09/22 04:10:16;;;;;;;0.70;0.40;;;;;;;21.75;28.70;101338.25;4729608;30;20038;-87
2022/09/22 04:12:42;;;;;;;2.15;0.50;;;;;;;21.68;28.59;101333.97;4752829;30;20058;-86
2022/09/22 04:15:08;;;;;;;0.75;0.38;;;;;;;21.70;28.75;101345.47;4737834;30;20131;-86
2022/09/22 04:17:35;;;;;;;0.40;0.40;;;;;;;21.74;28.57;101335.75;4719884;30;20482;-87
2022/09/22 04:20:02;;;;;;;0.98;0.40;;;;;;;21.63;28.71;101328.44;4724888;30;20036;-86
2022/09/22 04:22:28;;;;;;;0.80;0.40;;;;;;;21.70;28.60;101345.47;4735275;30;20398;-86
2022/09/22 04:24:54;;;;;;;1.08;0.30;;;;;;;21.67;28.53;101341.31;4719822;30;20122;-86
2022/09/22 04:27:19;;;;;;;0.50;0.30;;;;;;;21.58;28.58;101326.44;4753827;30;20096;-86
2022/09/22 04:29:45;;;;;;;0.60;0.40;;;;;;;21.54;28.58;101323.38;4754136;30;20550;-86
2022/09/22 04:32:10;;;;;;;0.28;0.28;;;;;;;21.63;28.57;101344.75;4756508;30;20032;-86
2022/09/22 04:34:36;;;;;;;0.63;0.40;;;;;;;21.60;28.62;101353.41;4718950;30;20043;-86
2022/09/22 04:37:04;;;;;;;0.40;0.40;;;;;;;21.57;28.49;101336.47;4736142;30;20042;-86
2022/09/22 04:39:32;;;;;;;0.60;0.40;;;;;;;21.59;28.57;101344.41;4735218;30;20032;-86
2022/09/22 04:41:57;;;;;;;1.55;0.40;;;;;;;21.68;28.49;101353.03;4739570;30;20331;-86
2022/09/22 04:44:23;;;;;;;0.35;0.30;;;;;;;21.54;28.54;101342.41;4734989;30;20039;-86
2022/09/22 04:46:49;;;;;;;0.75;0.30;;;;;;;21.48;28.60;101339.81;4735694;30;20031;-86
2022/09/22 04:49:15;;;;;;;0.75;0.40;;;;;;;21.58;28.41;101356.38;4734143;30;20528;-86
2022/09/22 04:51:41;;;;;;;0.98;0.35;;;;;;;21.52;28.42;101346.44;4739635;30;20102;-86
2022/09/22 04:54:07;;;;;;;1.65;0.40;;;;;;;21.61;28.41;101363.22;4757976;30;20127;-86
2022/09/22 04:56:32;;;;;;;1.48;0.40;;;;;;;21.62;28.44;101359.44;4727051;30;20035;-86
2022/09/22 04:58:58;;;;;;;0.50;0.40;;;;;;;21.46;28.53;101339.19;4742365;30;20040;-86
2022/09/22 05:01:26;;;;;;;0.50;0.43;;;;;;;21.59;28.38;101355.28;4734536;30;20054;-86
2022/09/22 05:03:52;;;;;;;0.50;0.30;;;;;;;21.63;28.40;101355.63;4741751;30;20023;-86
2022/09/22 05:06:17;;;;;;;0.30;0.30;;;;;;;21.53;28.40;101354.34;4743501;30;20119;-86
2022/09/22 05:08:45;;;;;;;2.20;0.45;;;;;;;21.59;28.43;101360.72;4723866;30;20039;-86
2022/09/22 05:11:11;;;;;;;0.50;0.50;;;;;;;21.57;28.32;101360.97;4725439;30;20074;-86
2022/09/22 05:13:39;;;;;;;1.40;0.50;;;;;;;21.52;28.41;101349.97;4737451;30;20088;-85
2022/09/22 05:16:07;;;;;;;0.95;0.50;;;;;;;21.54;28.48;101353.31;4724536;30;20406;-86
2022/09/22 05:18:33;;;;;;;3.03;0.30;;;;;;;21.50;28.48;101354.00;4733301;30;20028;-86
2022/09/22 05:20:59;;;;;;;0.50;0.35;;;;;;;21.57;28.38;101363.69;4742203;30;20038;-85
2022/09/22 05:23:25;;;;;;;0.30;0.30;;;;;;;21.51;28.32;101353.75;4733079;30;20075;-86
2022/09/22 05:25:51;;;;;;;0.30;0.30;;;;;;;21.54;28.55;101358.75;4757436;30;20497;-86
2022/09/22 05:28:16;;;;;;;0.40;0.40;;;;;;;21.52;28.67;101362.75;4756956;30;20032;-85
2022/09/22 05:30:42;;;;;;;0.68;0.30;;;;;;;21.57;28.52;101369.13;4740364;30;20034;-86
2022/09/22 05:33:07;;;;;;;0.20;0.20;;;;;;;21.59;28.51;101365.34;4737852;30;20039;-86
2022/09/22 05:35:33;;;;;;;1.02;0.40;;;;;;;21.51;28.55;101355.66;4728941;30;20119;-86
2022/09/22 05:37:58;;;;;;;0.68;0.40;;;;;;;21.56;28.56;101363.94;4742762;30;20107;-85
2022/09/22 05:40:25;;;;;;;0.77;0.38;;;;;;;21.47;28.67;101347.16;4741879;30;20071;-86
2022/09/22 05:42:52;;;;;;;0.75;0.50;;;;;;;21.50;28.56;101352.09;4730436;30;20043;-86
2022/09/22 05:45:32;;;;;;;2.30;0.50;;;;;;;21.57;28.35;101355.50;4745198;30;20028;-85
2022/09/22 05:47:58;;;;;;;1.10;0.35;;;;;;;21.36;28.55;101335.16;4744190;30;20100;-86
2022/09/22 05:50:24;;;;;;;0.88;0.40;;;;;;;21.44;28.67;101350.31;4763476;30;20482;-86
2022/09/22 05:52:49;;;;;;;0.40;0.40;;;;;;;21.55;28.61;101360.38;4749858;30;20518;-85
2022/09/22 05:55:15;;;;;;;0.50;0.30;;;;;;;21.56;28.65;101359.31;4742529;30;20394;-86
2022/09/22 05:57:42;;;;;;;0.95;0.43;;;;;;;21.33;28.76;101329.38;4737140;30;20031;-85
2022/09/22 06:00:08;;;;;;;0.60;0.50;;;;;;;21.54;28.88;101368.78;4741251;30;20063;-86
2022/09/22 06:02:35;;;;;;;0.30;0.30;;;;;;;21.50;28.64;101356.72;4733027;30;20058;-86
2022/09/22 06:05:01;;;;;;;1.10;0.30;;;;;;;21.56;28.57;101366.66;4737628;30;20032;-86
2022/09/22 06:07:27;;;;;;;0.50;0.40;;;;;;;21.43;28.85;101340.50;4739963;30;20030;-86
2022/09/22 06:09:52;;;;;;;0.55;0.40;;;;;;;21.56;28.67;101355.78;4741058;30;20074;-85
2022/09/22 06:12:18;;;;;;;0.40;0.40;;;;;;;21.51;28.77;101350.22;4759027;30;20527;-85
2022/09/22 06:14:44;;;;;;;0.60;0.30;;;;;;;21.54;28.80;101368.78;4722359;30;20092;-85
2022/09/22 06:17:10;;;;;;;0.40;0.40;;;;;;;21.46;28.93;101350.06;4754368;30;20070;-85
2022/09/22 06:19:37;;;;;;;0.30;0.30;;;;;;;21.55;28.87;101371.25;4760666;30;20057;-85
2022/09/22 06:22:03;;;;;;;0.40;0.40;;;;;;;21.40;28.94;101335.50;4753559;30;20390;-85
2022/09/22 06:24:28;;;;;;;0.65;0.30;;;;;;;21.41;28.76;101336.38;4767556;30;20069;-85
2022/09/22 06:26:54;;;;;;;0.47;0.40;;;;;;;21.45;28.99;101332.91;4759049;30;20518;-85
2022/09/22 06:29:20;;;;;;;1.67;0.40;;;;;;;21.52;28.90;101349.16;4766951;30;20039;-85
2022/09/22 06:31:47;;;;;;;1.70;0.50;;;;;;;21.46;28.99;101345.50;4764104;30;20032;-85
2022/09/22 06:34:13;;;;;;;0.80;0.30;;;;;;;21.53;29.02;101340.75;4745658;30;20051;-85
2022/09/22 06:36:44;;;;;;;0.73;0.43;;;;;;;21.62;29.06;101367.59;4750009;30;20023;-85
2022/09/22 06:39:10;;;;;;;0.82;0.40;;;;;;;21.51;28.86;101340.16;4738399;30;20031;-85
2022/09/22 06:41:36;;;;;;;0.65;0.50;;;;;;;21.60;29.12;101350.69;4761219;30;20038;-85
2022/09/22 06:44:02;;;;;;;0.28;0.28;;;;;;;21.63;28.92;101355.63;4722645;30;20031;-85
2022/09/22 06:46:29;;;;;;;0.32;0.32;;;;;;;21.61;28.98;101338.72;4744202;30;20498;-85
2022/09/22 06:48:57;;;;;;;0.30;0.30;;;;;;;21.59;29.04;101343.59;4724153;30;20035;-85
2022/09/22 06:51:27;;;;;;;0.45;0.45;;;;;;;21.57;29.08;101335.66;4742211;30;20082;-85
2022/09/22 06:53:56;;;;;;;0.40;0.40;;;;;;;21.45;29.10;101319.31;4746008;30;20032;-85
2022/09/22 06:56:23;;;;;;;0.22;0.22;;;;;;;21.65;29.03;101346.19;4724750;30;20031;-85
2022/09/22 06:58:49;;;;;;;0.60;0.40;;;;;;;21.57;29.05;101327.50;4721128;30;20071;-85
2022/09/22 07:01:43;;;;;;;0.30;0.30;;;;;;;21.72;28.96;101351.50;4760954;30;20060;-85
2022/09/22 07:04:26;;;;;;;0.30;0.30;;;;;;;21.73;29.00;101356.72;4765941;30;20102;-85
2022/09/22 07:06:52;;;;;;;0.63;0.50;;;;;;;21.62;28.99;101332.25;4763911;30;20028;-85
2022/09/22 07:09:18;;;;;;;1.55;0.40;;;;;;;21.51;29.21;101315.69;4760846;30;20027;-85
2022/09/22 07:11:46;;;;;;;0.30;0.30;;;;;;;21.47;29.13;101300.94;4766205;30;20094;-85
2022/09/22 07:14:11;;;;;;;1.45;0.30;;;;;;;21.59;29.05;101316.38;4750129;30;20048;-85
2022/09/22 07:16:37;;;;;;;0.57;0.50;;;;;;;21.61;29.13;101308.81;4738655;30;20444;-85
2022/09/22 07:19:04;;;;;;;0.40;0.40;;;;;;;21.69;29.12;101325.59;4760052;30;20047;-85
2022/09/22 07:21:34;;;;;;;0.40;0.40;;;;;;;21.80;28.99;101334.81;4741885;30;20042;-85
2022/09/22 07:23:59;;;;;;;0.50;0.50;;;;;;;21.78;29.00;101331.47;4749765;30;20038;-85
2022/09/22 07:26:31;;;;;;;0.98;0.60;;;;;;;21.85;29.03;101340.38;4736661;30;20036;-85
2022/09/22 07:28:58;;;;;;;0.55;0.50;;;;;;;21.81;28.91;101325.56;4742499;30;20038;-85
2022/09/22 07:31:24;;;;;;;0.50;0.50;;;;;;;21.80;28.99;101323.94;4728062;30;20099;-85
2022/09/22 07:33:50;;;;;;;0.32;0.30;;;;;;;21.82;28.91;101321.78;4732582;30;20035;-85
2022/09/22 07:36:21;;;;;;;0.65;0.35;;;;;;;21.86;29.02;101328.41;4731033;30;20063;-85
2022/09/22 07:38:48;;;;;;;0.40;0.40;;;;;;;21.88;29.09;101325.44;4748298;30;20114;-85
2022/09/22 07:41:40;;;;;;;0.32;0.32;;;;;;;21.84;28.97;101319.66;4728515;30;20039;-85
2022/09/22 07:47:10;;;;;;;0.47;0.47;;;;;;;21.87;28.74;101308.28;4720027;30;20071;-85
2022/09/22 07:49:35;;;;;;;1.58;0.45;;;;;;;21.94;28.77;101322.59;4696934;30;20092;-85
2022/09/22 07:52:01;;;;;;;0.63;0.50;;;;;;;21.85;28.66;101309.59;4704629;30;20475;-85
2022/09/22 07:54:27;;;;;;;0.45;0.40;;;;;;;21.90;28.67;101318.72;4705936;30;20538;-85
2022/09/22 07:56:56;;;;;;;0.40;0.40;;;;;;;21.93;28.59;101323.66;4723978;30;20529;-85
2022/09/22 07:59:22;;;;;;;0.40;0.40;;;;;;;21.91;28.64;101309.47;4727255;30;20506;-85
2022/09/22 08:01:49;;;;;;;0.30;0.30;;;;;;;21.98;28.66;101317.50;4749829;30;20144;-84
2022/09/22 08:04:25;;;;;;;0.43;0.43;;;;;;;21.85;28.31;101293.25;4758824;30;20031;-85
2022/09/22 08:06:54;;;;;;;0.40;0.40;;;;;;;22.00;28.61;101330.84;4744076;30;20038;-85
2022/09/22 08:09:19;;;;;;;4.25;0.32;;;;;;;21.85;28.60;101295.97;4736905;30;20028;-84
2022/09/22 08:11:47;;;;;;;0.40;0.40;;;;;;;21.90;28.35;101312.41;4726835;30;20125;-84
2022/09/22 08:14:14;;;;;;;0.52;0.50;;;;;;;21.97;28.33;101313.09;4721569;30;20123;-84
2022/09/22 08:16:39;;;;;;;0.40;0.40;;;;;;;21.98;28.47;101314.75;4723385;30;20398;-84
2022/09/22 08:19:11;;;;;;;0.77;0.50;;;;;;;21.84;28.49;101286.19;4742249;30;20032;-85
2022/09/22 08:21:40;;;;;;;0.50;0.50;;;;;;;22.10;28.59;101328.34;4724298;30;20042;-84
2022/09/22 08:24:07;;;;;;;0.45;0.40;;;;;;;22.08;28.74;101322.31;4720074;30;20120;-84
2022/09/22 08:26:35;;;;;;;0.40;0.40;;;;;;;22.03;28.45;101306.69;4734905;30;20038;-85
2022/09/22 08:29:01;;;;;;;0.85;0.40;;;;;;;21.95;28.51;101309.81;4740196;30;20055;-85
2022/09/22 08:31:27;;;;;;;0.50;0.50;;;;;;;21.97;28.68;101296.78;4720123;30;20070;-85
2022/09/22 08:33:53;;;;;;;0.40;0.40;;;;;;;22.00;28.71;101314.53;4736082;30;20039;-85
2022/09/22 08:36:19;;;;;;;0.30;0.30;;;;;;;21.95;28.65;101301.63;4739824;30;20398;-85
2022/09/22 08:38:48;;;;;;;1.85;0.40;;;;;;;21.78;28.65;101271.63;4738780;30;20545;-84
2022/09/22 08:41:21;;;;;;;0.35;0.35;;;;;;;21.91;28.78;101281.44;4723123;30;20028;-85
2022/09/22 08:43:53;;;;;;;0.28;0.28;;;;;;;22.01;28.85;101310.72;4747228;30;20042;-85
2022/09/22 08:46:20;;;;;;;0.65;0.50;;;;;;;21.91;28.87;101278.72;4739046;30;20028;-85
2022/09/22 08:51:50;;;;;;;0.47;0.40;;;;;;;22.02;28.96;101309.66;4740809;30;20096;-85
2022/09/22 08:54:17;;;;;;;1.02;0.30;;;;;;;22.12;29.02;101316.13;4745002;30;20039;-85
2022/09/22 08:56:56;;;;;;;0.30;0.30;;;;;;;22.04;29.01;101299.34;4753019;30;20036;-85
2022/09/22 08:59:34;;;;;;;1.58;0.40;;;;;;;22.08;29.00;101297.81;4741368;30;20510;-85
2022/09/22 09:02:31;;;;;;;0.43;0.43;;;;;;;22.21;28.78;101292.06;4747170;30;20579;-85
2022/09/22 09:05:21;;;;;;;0.40;0.40;;;;;;;22.19;28.97;101299.66;4756113;30;20032;-85
2022/09/22 09:08:02;;;;;;;0.98;0.50;;;;;;;22.21;28.92;101291.25;4757150;30;20048;-85
2022/09/22 09:10:46;;;;;;;0.40;0.40;;;;;;;22.14;29.01;101275.06;4764455;30;20059;-85
2022/09/22 09:13:29;;;;;;;0.52;0.40;;;;;;;22.20;28.99;101290.44;4761459;30;20493;-85
2022/09/22 09:16:16;;;;;;;0.93;0.50;;;;;;;22.21;29.19;101286.63;4739763;30;20613;-85
2022/09/22 09:18:44;;;;;;;0.40;0.40;;;;;;;22.12;29.19;101293.53;4757938;30;20039;-85
2022/09/22 09:21:13;;;;;;;0.40;0.40;;;;;;;22.19;29.32;101294.22;4746287;30;20038;-85
2022/09/22 09:23:51;;;;;;;0.50;0.50;;;;;;;22.19;29.00;101291.50;4758728;30;20038;-85
2022/09/22 09:26:19;;;;;;;0.40;0.40;;;;;;;22.23;29.05;101294.53;4732986;30;20135;-85
2022/09/22 09:28:58;;;;;;;2.63;0.50;;;;;;;22.29;28.98;101293.63;4723929;30;20042;-85
2022/09/22 09:31:36;;;;;;;0.55;0.40;;;;;;;22.31;28.86;101292.28;4740097;30;20461;-85
2022/09/22 09:34:04;;;;;;;1.75;0.50;;;;;;;22.26;28.81;101273.09;4739239;30;20039;-85
2022/09/22 09:36:36;;;;;;;0.43;0.43;;;;;;;22.28;28.95;101268.28;4735368;30;20090;-85
2022/09/22 09:39:10;;;;;;;0.40;0.40;;;;;;;22.10;28.82;101238.50;4744913;30;20032;-85
2022/09/22 09:41:35;;;;;;;0.40;0.40;;;;;;;22.23;29.03;101256.44;4744070;30;20067;-85
2022/09/22 09:44:02;;;;;;;0.30;0.30;;;;;;;22.37;28.96;101273.31;4735939;30;20122;-85
2022/09/22 09:46:49;;;;;;;0.35;0.35;;;;;;;22.40;28.95;101276.38;4761447;30;20040;-85
2022/09/22 09:49:16;;;;;;;0.50;0.50;;;;;;;22.28;29.19;101256.56;4756511;30;20119;-85
2022/09/22 09:51:52;;;;;;;0.30;0.30;;;;;;;22.35;29.04;101264.56;4739390;30;20450;-85
2022/09/22 09:54:18;;;;;;;0.40;0.40;;;;;;;22.33;29.01;101269.44;4751326;30;20036;-85
2022/09/22 09:57:02;;;;;;;1.05;0.50;;;;;;;22.44;29.08;101279.47;4742500;30;20379;-85
2022/09/22 10:02:13;;;;;;;1.30;0.40;;;;;;;22.27;29.10;101258.47;4754032;30;20058;-85
2022/09/22 10:04:39;;;;;;;0.52;0.50;;;;;;;22.41;29.14;101271.78;4725824;30;20407;-85
2022/09/22 10:07:11;;;;;;;0.45;0.45;;;;;;;22.38;29.18;101274.97;4739712;30;20040;-85
2022/09/22 10:09:37;;;;;;;1.33;0.50;;;;;;;22.36;29.19;101266.25;4759318;30;20039;-85
2022/09/22 10:12:03;;;;;;;1.90;0.50;;;;;;;22.30;29.14;101252.53;4747380;30;20036;-85
2022/09/22 10:14:32;;;;;;;0.50;0.50;;;;;;;22.31;29.14;101248.72;4747508;30;20086;-85
2022/09/22 10:16:58;;;;;;;0.40;0.40;;;;;;;22.39;29.23;101260.31;4759578;30;20028;-85
2022/09/22 10:19:28;;;;;;;0.47;0.47;;;;;;;22.52;29.07;101265.41;4730426;30;20379;-85
2022/09/22 10:22:26;;;;;;;0.52;0.50;;;;;;;22.44;29.03;101249.50;4757136;30;20058;-87
2022/09/22 10:24:56;;;;;;;0.40;0.40;;;;;;;22.42;28.91;101246.19;4735570;30;20135;-85
2022/09/22 10:27:23;;;;;;;0.40;0.40;;;;;;;22.53;28.93;101267.09;4745544;30;20118;-85
2022/09/22 10:30:12;;;;;;;0.68;0.50;;;;;;;22.44;29.09;101241.34;4748722;30;20443;-85
2022/09/22 10:32:38;;;;;;;0.40;0.40;;;;;;;22.30;29.26;101214.41;4759230;30;20085;-85
2022/09/22 10:35:24;;;;;;;0.43;0.43;;;;;;;22.52;29.45;101243.63;4723565;30;20410;-85
2022/09/22 10:37:51;;;;;;;0.30;0.30;;;;;;;22.50;29.26;101256.69;4730235;30;20494;-85
2022/09/22 10:40:17;;;;;;;0.60;0.50;;;;;;;22.48;29.44;101242.47;4743834;30;20043;-85
2022/09/22 10:42:46;;;;;;;0.52;0.40;;;;;;;22.56;29.18;101250.25;4733931;30;20039;-85
2022/09/22 10:45:14;;;;;;;0.60;0.35;;;;;;;22.46;29.31;101228.28;4733049;30;20529;-85
2022/09/22 10:47:59;;;;;;;0.50;0.50;;;;;;;22.57;29.33;101241.00;4740496;30;20390;-85
2022/09/22 10:51:00;;;;;;;0.70;0.45;;;;;;;22.37;29.31;101199.78;4765890;30;20047;-85
2022/09/22 10:53:34;;;;;;;0.40;0.40;;;;;;;22.59;29.24;101243.47;4738144;30;20040;-85
2022/09/22 10:56:25;;;;;;;0.60;0.60;;;;;;;22.58;29.36;101242.66;4754606;30;20028;-85
2022/09/22 10:59:09;;;;;;;0.38;0.38;;;;;;;22.62;29.36;101237.53;4744356;30;20167;-85
2022/09/22 11:01:44;;;;;;;0.57;0.50;;;;;;;22.61;29.35;101236.72;4762163;30;20113;-85
2022/09/22 11:04:15;;;;;;;0.98;0.60;;;;;;;22.51;29.32;101209.31;4742357;30;20040;-85
2022/09/22 11:13:15;;;;;;;0.47;0.47;;;;;;;22.71;29.47;101221.59;4763663;30;20128;-85
2022/09/22 11:16:08;;;;;;;0.40;0.40;;;;;;;;;;4758779;30;20040;-85
2022/09/22 11:19:03;;;;;;;0.50;0.50;;;;;;;22.70;29.60;101226.22;4742677;30;20043;-85
2022/09/22 11:21:49;;;;;;;1.20;0.45;;;;;;;22.72;29.46;101215.09;4736569;30;20394;-85
2022/09/22 11:24:37;;;;;;;1.15;0.50;;;;;;;22.68;29.29;101210.13;4766422;30;20038;-85
2022/09/22 11:27:02;;;;;;;2.35;0.50;;;;;;;22.68;29.38;101204.69;4747116;30;20062;-85
2022/09/22 11:29:34;;;;;;;2.00;0.55;;;;;;;22.76;29.19;101200.69;4750261;30;20506;-85
2022/09/22 11:32:00;;;;;;;0.40;0.40;;;;;;;22.77;29.27;101194.19;4763068;30;20036;-85
2022/09/22 11:34:57;;;;;;;0.90;0.50;;;;;;;22.81;29.21;101200.78;4751277;30;20035;-85
2022/09/22 11:37:45;;;;;;;0.30;0.30;;;;;;;22.68;29.33;101182.06;4755941;30;20066;-85
2022/09/22 11:40:35;;;;;;;0.43;0.43;;;;;;;22.78;29.23;101198.53;4760159;30;20032;-85
2022/09/22 11:43:10;;;;;;;1.20;0.50;;;;;;;22.79;29.27;101197.47;4755727;30;20130;-85
2022/09/22 11:45:48;;;;;;;0.40;0.40;;;;;;;22.78;29.15;101197.72;4754694;30;20122;-85
2022/09/22 11:48:45;;;;;;;0.50;0.50;;;;;;;22.56;29.39;101163.09;4729843;30;20035;-85
2022/09/22 11:51:58;;;;;;;0.47;0.47;;;;;;;22.79;29.27;101191.22;4739007;30;20040;-85
2022/09/22 11:54:34;;;;;;;0.40;0.40;;;;;;;22.83;29.29;101184.19;4760405;30;20044;-86
2022/09/22 11:57:01;;;;;;;0.50;0.50;;;;;;;22.82;29.09;101182.53;4738997;30;20034;-85
2022/09/22 11:59:30;;;;;;;0.60;0.35;;;;;;;22.87;29.08;101188.88;4730019;30;20024;-85